Pagrindinis puslapis
METAR-TAF:

METAR-TAF

Oro uostai :

Arika, Čilė

platuma: 18-20S, ilguma: 070-20W, Aukštis: 58 m

Dabartinis oras

Ataskaita buvo paskelbta 43 minutes, ne 16:00 UTC
Vėjas 3 kt iš Vakarų, svyruoja nuo Pietvakarių ir Šiaurės
Temperatūra 18°C
Drėgmė 64%
Slėgis 1016 hPa
Matomumas 10 km arba daugiau
Apsiniaukę ne aukštis 2600 ft

METAR: SCAR 271600Z 28003KT 220V360 9999 OVC026 18/11 Q1016

Laikas: 12:43 (16:43 UTC)

Prognozė

Ataskaita buvo paskelbta 6 valandos ir 13 minutes, ne 10:30 UTC
Prognozė galioja nuo 27 metu 12 UTC su 28 metu 12 UTC
Vėjas 4 kt iš Pietų/Pietvakarių
Matomumas 10 km arba daugiau
Apsiniaukę ne aukštis 2500 ft
Tapsmas
nuo 27 metu 14 UTC su 27 metu 16 UTC
Vėjas 12 kt iš Pietų/Pietvakarių
Matomumas 10 km arba daugiau
nėra debesų žemiau 1500 m ir nėra kamuolinių lietaus debesų
Tapsmas
nuo 27 metu 22 UTC su 28 metu 00 UTC
Vėjas 4 kt iš Pietų/Pietvakarių
Apsiniaukę ne aukštis 2500 ft

TAF: SCAR 271030Z 2712/2812 21004KT 9999 OVC025 TX19/2718Z TN16/2810Z BECMG 2714/2716 21012KT CAVOK BECMG 2722/2800 21004KT OVC025

Orai ataskaitas ir orų prognozės (METAR, TAF).

turimą stotys yra geltonos ir raudonos taškus žemėlapyje.

Perkelti pele per norėdami pamatyti stoties vardą.

Tada spustelėkite, norėdami matyti oro stebėjimo ir prognozės.

Norėdami pakeisti žemėlapį: spustelėkite ant žalios mygtukų su juodo kryžiaus žemyn,; žalią mygtuką su brūkšneliu, jei norite nutolinti; arba žalių rodyklių gretimoms žemėlapius.


METAR-TAF: